sensor_id;sensor_type;location;lat;lon;timestamp;P1;durP1;ratioP1;P2;durP2;ratioP2
73172;SDS011;61388;54.962;73.394;2022-10-17T00:02:05;90.22;;;82.07;;
73172;SDS011;61388;54.962;73.394;2022-10-17T00:04:49;84.80;;;77.53;;
73172;SDS011;61388;54.962;73.394;2022-10-17T00:07:34;73.72;;;67.75;;
73172;SDS011;61388;54.962;73.394;2022-10-17T00:10:10;71.70;;;65.40;;
73172;SDS011;61388;54.962;73.394;2022-10-17T00:12:49;78.05;;;71.63;;
73172;SDS011;61388;54.962;73.394;2022-10-17T00:15:23;80.80;;;74.38;;
73172;SDS011;61388;54.962;73.394;2022-10-17T00:17:53;84.18;;;76.90;;
73172;SDS011;61388;54.962;73.394;2022-10-17T00:20:22;87.38;;;78.88;;
73172;SDS011;61388;54.962;73.394;2022-10-17T00:22:51;86.03;;;77.93;;
73172;SDS011;61388;54.962;73.394;2022-10-17T00:25:26;73.43;;;64.32;;
73172;SDS011;61388;54.962;73.394;2022-10-17T00:27:52;84.15;;;70.25;;
73172;SDS011;61388;54.962;73.394;2022-10-17T00:30:29;94.35;;;75.57;;
73172;SDS011;61388;54.962;73.394;2022-10-17T00:33:02;104.88;;;74.68;;
73172;SDS011;61388;54.962;73.394;2022-10-17T00:35:34;100.87;;;76.40;;
73172;SDS011;61388;54.962;73.394;2022-10-17T00:38:00;89.90;;;62.45;;
73172;SDS011;61388;54.962;73.394;2022-10-17T00:40:29;91.22;;;56.88;;
73172;SDS011;61388;54.962;73.394;2022-10-17T00:42:55;81.47;;;49.20;;
73172;SDS011;61388;54.962;73.394;2022-10-17T00:45:24;92.60;;;52.10;;
73172;SDS011;61388;54.962;73.394;2022-10-17T00:47:54;200.57;;;74.67;;
73172;SDS011;61388;54.962;73.394;2022-10-17T00:50:23;144.65;;;69.03;;
73172;SDS011;61388;54.962;73.394;2022-10-17T00:53:00;143.75;;;70.70;;
73172;SDS011;61388;54.962;73.394;2022-10-17T00:55:57;124.00;;;78.25;;
73172;SDS011;61388;54.962;73.394;2022-10-17T00:58:24;89.70;;;56.83;;
73172;SDS011;61388;54.962;73.394;2022-10-17T01:00:50;130.30;;;68.97;;
73172;SDS011;61388;54.962;73.394;2022-10-17T01:03:25;108.80;;;64.18;;
73172;SDS011;61388;54.962;73.394;2022-10-17T01:05:54;98.47;;;63.60;;
73172;SDS011;61388;54.962;73.394;2022-10-17T01:08:20;91.13;;;54.80;;
73172;SDS011;61388;54.962;73.394;2022-10-17T01:10:53;110.70;;;65.32;;
73172;SDS011;61388;54.962;73.394;2022-10-17T01:21:44;101.97;;;62.72;;
73172;SDS011;61388;54.962;73.394;2022-10-17T01:27:27;104.07;;;61.63;;
73172;SDS011;61388;54.962;73.394;2022-10-17T01:30:18;97.55;;;56.50;;
73172;SDS011;61388;54.962;73.394;2022-10-17T01:33:04;112.35;;;57.80;;
73172;SDS011;61388;54.962;73.394;2022-10-17T01:42:06;100.40;;;50.20;;
73172;SDS011;61388;54.962;73.394;2022-10-17T01:44:56;128.02;;;61.40;;
73172;SDS011;61388;54.962;73.394;2022-10-17T01:47:29;120.80;;;57.42;;
73172;SDS011;61388;54.962;73.394;2022-10-17T01:50:09;139.15;;;65.75;;
73172;SDS011;61388;54.962;73.394;2022-10-17T01:52:41;144.90;;;67.63;;
73172;SDS011;61388;54.962;73.394;2022-10-17T01:55:14;148.37;;;72.53;;
73172;SDS011;61388;54.962;73.394;2022-10-17T01:57:46;142.65;;;68.05;;
73172;SDS011;61388;54.962;73.394;2022-10-17T02:00:16;152.30;;;71.10;;
73172;SDS011;61388;54.962;73.394;2022-10-17T02:02:43;149.63;;;71.70;;
73172;SDS011;61388;54.962;73.394;2022-10-17T02:05:15;147.60;;;72.93;;
73172;SDS011;61388;54.962;73.394;2022-10-17T02:07:42;127.93;;;67.30;;
73172;SDS011;61388;54.962;73.394;2022-10-17T02:10:18;137.40;;;77.28;;
73172;SDS011;61388;54.962;73.394;2022-10-17T02:12:56;142.10;;;72.30;;
73172;SDS011;61388;54.962;73.394;2022-10-17T02:24:41;106.25;;;60.22;;
73172;SDS011;61388;54.962;73.394;2022-10-17T02:30:36;152.52;;;75.07;;
73172;SDS011;61388;54.962;73.394;2022-10-17T02:33:24;158.40;;;71.50;;
73172;SDS011;61388;54.962;73.394;2022-10-17T02:36:05;141.23;;;68.00;;
73172;SDS011;61388;54.962;73.394;2022-10-17T02:38:48;124.68;;;69.32;;
73172;SDS011;61388;54.962;73.394;2022-10-17T02:41:22;94.70;;;49.50;;
73172;SDS011;61388;54.962;73.394;2022-10-17T02:43:59;83.95;;;49.20;;
73172;SDS011;61388;54.962;73.394;2022-10-17T02:46:31;81.97;;;46.85;;
73172;SDS011;61388;54.962;73.394;2022-10-17T02:49:14;89.60;;;52.00;;
73172;SDS011;61388;54.962;73.394;2022-10-17T02:52:09;80.85;;;51.75;;
73172;SDS011;61388;54.962;73.394;2022-10-17T02:55:02;69.22;;;46.38;;
73172;SDS011;61388;54.962;73.394;2022-10-17T02:57:54;104.38;;;90.45;;
73172;SDS011;61388;54.962;73.394;2022-10-17T03:00:30;109.25;;;95.80;;
73172;SDS011;61388;54.962;73.394;2022-10-17T03:03:17;100.10;;;83.87;;
73172;SDS011;61388;54.962;73.394;2022-10-17T03:05:43;77.13;;;64.10;;
73172;SDS011;61388;54.962;73.394;2022-10-17T03:08:19;106.28;;;89.60;;
73172;SDS011;61388;54.962;73.394;2022-10-17T03:10:53;91.63;;;81.88;;
73172;SDS011;61388;54.962;73.394;2022-10-17T03:13:21;115.57;;;103.97;;
73172;SDS011;61388;54.962;73.394;2022-10-17T03:15:55;77.83;;;63.93;;
73172;SDS011;61388;54.962;73.394;2022-10-17T03:21:29;75.10;;;56.67;;
73172;SDS011;61388;54.962;73.394;2022-10-17T03:23:56;109.78;;;83.28;;
73172;SDS011;61388;54.962;73.394;2022-10-17T03:26:32;104.95;;;93.00;;
73172;SDS011;61388;54.962;73.394;2022-10-17T03:29:07;96.70;;;68.33;;
73172;SDS011;61388;54.962;73.394;2022-10-17T03:31:34;129.90;;;108.32;;
73172;SDS011;61388;54.962;73.394;2022-10-17T03:34:01;102.00;;;83.68;;
73172;SDS011;61388;54.962;73.394;2022-10-17T03:36:28;113.47;;;97.50;;
73172;SDS011;61388;54.962;73.394;2022-10-17T03:38:57;144.63;;;124.88;;
73172;SDS011;61388;54.962;73.394;2022-10-17T03:41:29;115.97;;;97.27;;
73172;SDS011;61388;54.962;73.394;2022-10-17T03:43:56;103.97;;;81.80;;
73172;SDS011;61388;54.962;73.394;2022-10-17T03:46:28;92.28;;;67.28;;
73172;SDS011;61388;54.962;73.394;2022-10-17T03:48:56;107.32;;;80.00;;
73172;SDS011;61388;54.962;73.394;2022-10-17T03:51:25;148.35;;;133.63;;
73172;SDS011;61388;54.962;73.394;2022-10-17T03:54:00;83.57;;;63.70;;
73172;SDS011;61388;54.962;73.394;2022-10-17T03:57:05;101.82;;;79.32;;
73172;SDS011;61388;54.962;73.394;2022-10-17T03:59:34;114.43;;;95.95;;
73172;SDS011;61388;54.962;73.394;2022-10-17T04:02:15;98.25;;;76.00;;
73172;SDS011;61388;54.962;73.394;2022-10-17T04:04:44;77.88;;;56.20;;
73172;SDS011;61388;54.962;73.394;2022-10-17T04:07:11;77.77;;;54.10;;
73172;SDS011;61388;54.962;73.394;2022-10-17T04:22:52;83.72;;;49.10;;
73172;SDS011;61388;54.962;73.394;2022-10-17T04:25:39;107.60;;;69.73;;
73172;SDS011;61388;54.962;73.394;2022-10-17T04:28:05;130.38;;;98.55;;
73172;SDS011;61388;54.962;73.394;2022-10-17T04:36:55;128.00;;;99.68;;
73172;SDS011;61388;54.962;73.394;2022-10-17T04:39:32;81.67;;;58.87;;
73172;SDS011;61388;54.962;73.394;2022-10-17T04:47:22;92.75;;;60.20;;
73172;SDS011;61388;54.962;73.394;2022-10-17T04:49:52;78.45;;;56.40;;
73172;SDS011;61388;54.962;73.394;2022-10-17T04:52:21;74.40;;;51.90;;
73172;SDS011;61388;54.962;73.394;2022-10-17T04:54:48;60.37;;;40.03;;
73172;SDS011;61388;54.962;73.394;2022-10-17T04:57:16;68.93;;;48.20;;
73172;SDS011;61388;54.962;73.394;2022-10-17T04:59:52;94.20;;;75.95;;
73172;SDS011;61388;54.962;73.394;2022-10-17T05:02:28;80.15;;;69.68;;
73172;SDS011;61388;54.962;73.394;2022-10-17T05:04:54;99.05;;;88.93;;
73172;SDS011;61388;54.962;73.394;2022-10-17T05:07:23;109.80;;;99.07;;
73172;SDS011;61388;54.962;73.394;2022-10-17T05:11:26;136.52;;;116.88;;
73172;SDS011;61388;54.962;73.394;2022-10-17T05:14:05;74.72;;;56.40;;
73172;SDS011;61388;54.962;73.394;2022-10-17T05:16:32;65.15;;;47.22;;
73172;SDS011;61388;54.962;73.394;2022-10-17T05:18:58;90.20;;;70.40;;
73172;SDS011;61388;54.962;73.394;2022-10-17T05:21:30;77.17;;;62.17;;
73172;SDS011;61388;54.962;73.394;2022-10-17T05:23:57;61.83;;;40.20;;
73172;SDS011;61388;54.962;73.394;2022-10-17T05:26:23;51.70;;;33.78;;
73172;SDS011;61388;54.962;73.394;2022-10-17T05:28:49;175.52;;;159.68;;
73172;SDS011;61388;54.962;73.394;2022-10-17T05:31:22;169.40;;;154.43;;
73172;SDS011;61388;54.962;73.394;2022-10-17T05:33:50;199.13;;;182.77;;
73172;SDS011;61388;54.962;73.394;2022-10-17T05:36:26;172.02;;;156.15;;
73172;SDS011;61388;54.962;73.394;2022-10-17T05:38:53;145.10;;;132.13;;
73172;SDS011;61388;54.962;73.394;2022-10-17T05:41:22;95.70;;;86.28;;
73172;SDS011;61388;54.962;73.394;2022-10-17T05:43:48;138.50;;;126.63;;
73172;SDS011;61388;54.962;73.394;2022-10-17T05:46:24;112.87;;;101.10;;
73172;SDS011;61388;54.962;73.394;2022-10-17T05:48:51;137.27;;;124.57;;
73172;SDS011;61388;54.962;73.394;2022-10-17T05:51:17;130.25;;;118.95;;
73172;SDS011;61388;54.962;73.394;2022-10-17T05:53:43;115.65;;;105.13;;
73172;SDS011;61388;54.962;73.394;2022-10-17T05:56:15;98.43;;;89.35;;
73172;SDS011;61388;54.962;73.394;2022-10-17T05:58:41;73.87;;;65.73;;
73172;SDS011;61388;54.962;73.394;2022-10-17T06:01:15;86.22;;;77.55;;
73172;SDS011;61388;54.962;73.394;2022-10-17T06:03:41;83.32;;;73.75;;
73172;SDS011;61388;54.962;73.394;2022-10-17T06:06:09;58.70;;;42.88;;
73172;SDS011;61388;54.962;73.394;2022-10-17T06:08:38;73.95;;;65.22;;
73172;SDS011;61388;54.962;73.394;2022-10-17T06:11:11;107.53;;;97.20;;
73172;SDS011;61388;54.962;73.394;2022-10-17T06:13:38;125.03;;;112.15;;
73172;SDS011;61388;54.962;73.394;2022-10-17T06:16:10;97.03;;;87.32;;
73172;SDS011;61388;54.962;73.394;2022-10-17T06:18:36;145.63;;;131.40;;
73172;SDS011;61388;54.962;73.394;2022-10-17T06:21:06;136.70;;;124.40;;
73172;SDS011;61388;54.962;73.394;2022-10-17T06:23:33;140.53;;;127.07;;
73172;SDS011;61388;54.962;73.394;2022-10-17T06:26:06;140.18;;;127.40;;
73172;SDS011;61388;54.962;73.394;2022-10-17T06:28:37;91.10;;;81.57;;
73172;SDS011;61388;54.962;73.394;2022-10-17T06:31:05;82.40;;;74.88;;
73172;SDS011;61388;54.962;73.394;2022-10-17T06:33:31;110.80;;;101.45;;
73172;SDS011;61388;54.962;73.394;2022-10-17T06:35:58;88.27;;;80.23;;
73172;SDS011;61388;54.962;73.394;2022-10-17T06:38:34;104.97;;;96.53;;
73172;SDS011;61388;54.962;73.394;2022-10-17T06:41:14;100.45;;;92.40;;
73172;SDS011;61388;54.962;73.394;2022-10-17T06:43:50;117.95;;;109.13;;
73172;SDS011;61388;54.962;73.394;2022-10-17T06:46:31;101.35;;;93.78;;
73172;SDS011;61388;54.962;73.394;2022-10-17T06:49:00;131.43;;;120.87;;
73172;SDS011;61388;54.962;73.394;2022-10-17T06:51:39;40.05;;;36.42;;
73172;SDS011;61388;54.962;73.394;2022-10-17T06:54:08;116.30;;;106.68;;
73172;SDS011;61388;54.962;73.394;2022-10-17T06:56:54;125.18;;;116.28;;
73172;SDS011;61388;54.962;73.394;2022-10-17T06:59:39;39.90;;;35.65;;
73172;SDS011;61388;54.962;73.394;2022-10-17T07:02:17;65.97;;;59.73;;
73172;SDS011;61388;54.962;73.394;2022-10-17T07:04:44;72.15;;;65.38;;
73172;SDS011;61388;54.962;73.394;2022-10-17T07:07:11;67.22;;;60.58;;
73172;SDS011;61388;54.962;73.394;2022-10-17T07:09:42;98.38;;;90.07;;
73172;SDS011;61388;54.962;73.394;2022-10-17T07:12:09;112.68;;;103.63;;
73172;SDS011;61388;54.962;73.394;2022-10-17T07:14:41;23.03;;;19.23;;
73172;SDS011;61388;54.962;73.394;2022-10-17T07:17:07;25.15;;;16.65;;
73172;SDS011;61388;54.962;73.394;2022-10-17T07:19:35;25.50;;;18.23;;
73172;SDS011;61388;54.962;73.394;2022-10-17T07:22:02;24.98;;;20.33;;
73172;SDS011;61388;54.962;73.394;2022-10-17T07:24:34;85.57;;;79.00;;
73172;SDS011;61388;54.962;73.394;2022-10-17T07:27:18;107.40;;;99.53;;
73172;SDS011;61388;54.962;73.394;2022-10-17T07:29:55;110.93;;;102.63;;
73172;SDS011;61388;54.962;73.394;2022-10-17T07:32:53;60.70;;;55.10;;
73172;SDS011;61388;54.962;73.394;2022-10-17T07:35:19;49.92;;;45.15;;
73172;SDS011;61388;54.962;73.394;2022-10-17T07:37:46;29.48;;;23.58;;
73172;SDS011;61388;54.962;73.394;2022-10-17T07:40:15;28.87;;;19.63;;
73172;SDS011;61388;54.962;73.394;2022-10-17T07:42:52;81.55;;;75.20;;
73172;SDS011;61388;54.962;73.394;2022-10-17T07:45:20;143.15;;;133.00;;
73172;SDS011;61388;54.962;73.394;2022-10-17T07:47:58;102.22;;;94.68;;
73172;SDS011;61388;54.962;73.394;2022-10-17T07:50:24;96.60;;;88.15;;
73172;SDS011;61388;54.962;73.394;2022-10-17T07:52:50;165.47;;;151.60;;
73172;SDS011;61388;54.962;73.394;2022-10-17T07:55:26;64.38;;;59.17;;
73172;SDS011;61388;54.962;73.394;2022-10-17T07:57:52;100.63;;;93.03;;
73172;SDS011;61388;54.962;73.394;2022-10-17T08:00:18;67.63;;;62.67;;
73172;SDS011;61388;54.962;73.394;2022-10-17T08:02:44;73.20;;;68.00;;
73172;SDS011;61388;54.962;73.394;2022-10-17T08:05:10;78.18;;;72.05;;
73172;SDS011;61388;54.962;73.394;2022-10-17T08:07:36;87.10;;;80.32;;
73172;SDS011;61388;54.962;73.394;2022-10-17T08:10:02;66.60;;;61.25;;
73172;SDS011;61388;54.962;73.394;2022-10-17T08:12:28;70.93;;;65.40;;
73172;SDS011;61388;54.962;73.394;2022-10-17T08:14:57;231.60;;;207.43;;
73172;SDS011;61388;54.962;73.394;2022-10-17T08:17:23;97.13;;;89.80;;
73172;SDS011;61388;54.962;73.394;2022-10-17T08:19:49;38.30;;;34.67;;
73172;SDS011;61388;54.962;73.394;2022-10-17T08:22:15;96.93;;;89.88;;
73172;SDS011;61388;54.962;73.394;2022-10-17T08:24:41;105.80;;;98.95;;
73172;SDS011;61388;54.962;73.394;2022-10-17T08:27:07;103.53;;;96.90;;
73172;SDS011;61388;54.962;73.394;2022-10-17T08:29:36;104.15;;;97.22;;
73172;SDS011;61388;54.962;73.394;2022-10-17T08:32:02;68.32;;;63.58;;
73172;SDS011;61388;54.962;73.394;2022-10-17T08:34:28;32.67;;;20.27;;
73172;SDS011;61388;54.962;73.394;2022-10-17T08:36:54;169.77;;;153.70;;
73172;SDS011;61388;54.962;73.394;2022-10-17T08:39:20;119.43;;;108.93;;
73172;SDS011;61388;54.962;73.394;2022-10-17T08:42:10;81.68;;;75.88;;
73172;SDS011;61388;54.962;73.394;2022-10-17T08:47:25;28.55;;;25.60;;
73172;SDS011;61388;54.962;73.394;2022-10-17T08:49:56;29.02;;;26.45;;
73172;SDS011;61388;54.962;73.394;2022-10-17T08:52:44;55.70;;;51.50;;
73172;SDS011;61388;54.962;73.394;2022-10-17T08:55:14;73.68;;;68.80;;
73172;SDS011;61388;54.962;73.394;2022-10-17T08:57:41;71.78;;;67.18;;
73172;SDS011;61388;54.962;73.394;2022-10-17T09:00:17;72.75;;;68.20;;
73172;SDS011;61388;54.962;73.394;2022-10-17T09:25:03;32.83;;;29.50;;
73172;SDS011;61388;54.962;73.394;2022-10-17T09:30:20;113.07;;;105.65;;
73172;SDS011;61388;54.962;73.394;2022-10-17T09:32:56;96.25;;;89.93;;
73172;SDS011;61388;54.962;73.394;2022-10-17T09:35:22;50.63;;;46.72;;
73172;SDS011;61388;54.962;73.394;2022-10-17T09:37:49;25.95;;;23.73;;
73172;SDS011;61388;54.962;73.394;2022-10-17T09:40:24;35.33;;;32.23;;
73172;SDS011;61388;54.962;73.394;2022-10-17T09:42:51;75.55;;;70.63;;
73172;SDS011;61388;54.962;73.394;2022-10-17T09:45:19;49.33;;;45.53;;
73172;SDS011;61388;54.962;73.394;2022-10-17T09:47:52;104.05;;;97.60;;
73172;SDS011;61388;54.962;73.394;2022-10-17T09:50:21;63.10;;;58.75;;
73172;SDS011;61388;54.962;73.394;2022-10-17T09:52:48;52.73;;;49.10;;
73172;SDS011;61388;54.962;73.394;2022-10-17T09:58:01;84.22;;;77.82;;
73172;SDS011;61388;54.962;73.394;2022-10-17T10:19:05;158.27;;;147.63;;
73172;SDS011;61388;54.962;73.394;2022-10-17T10:21:54;226.07;;;207.48;;
73172;SDS011;61388;54.962;73.394;2022-10-17T10:24:21;26.15;;;24.23;;
73172;SDS011;61388;54.962;73.394;2022-10-17T10:26:48;50.57;;;46.70;;
73172;SDS011;61388;54.962;73.394;2022-10-17T10:29:22;76.07;;;71.60;;
73172;SDS011;61388;54.962;73.394;2022-10-17T10:31:49;27.17;;;25.20;;
73172;SDS011;61388;54.962;73.394;2022-10-17T10:34:20;60.10;;;55.85;;
73172;SDS011;61388;54.962;73.394;2022-10-17T10:39:18;18.77;;;17.03;;
73172;SDS011;61388;54.962;73.394;2022-10-17T10:41:50;39.05;;;36.65;;
73172;SDS011;61388;54.962;73.394;2022-10-17T10:44:16;50.10;;;46.67;;
73172;SDS011;61388;54.962;73.394;2022-10-17T10:46:45;53.50;;;49.92;;
73172;SDS011;61388;54.962;73.394;2022-10-17T10:49:30;58.13;;;54.38;;
73172;SDS011;61388;54.962;73.394;2022-10-17T10:51:56;35.00;;;32.33;;
73172;SDS011;61388;54.962;73.394;2022-10-17T10:54:34;33.30;;;30.17;;
73172;SDS011;61388;54.962;73.394;2022-10-17T10:57:03;65.60;;;61.42;;
73172;SDS011;61388;54.962;73.394;2022-10-17T10:59:41;57.33;;;53.80;;
73172;SDS011;61388;54.962;73.394;2022-10-17T11:02:11;31.85;;;29.38;;
73172;SDS011;61388;54.962;73.394;2022-10-17T11:12:16;37.60;;;34.92;;
73172;SDS011;61388;54.962;73.394;2022-10-17T11:17:31;40.37;;;37.87;;
73172;SDS011;61388;54.962;73.394;2022-10-17T11:20:12;54.10;;;50.17;;
73172;SDS011;61388;54.962;73.394;2022-10-17T11:25:14;50.08;;;46.47;;
73172;SDS011;61388;54.962;73.394;2022-10-17T11:27:42;59.13;;;55.08;;
73172;SDS011;61388;54.962;73.394;2022-10-17T11:30:11;45.20;;;41.13;;
73172;SDS011;61388;54.962;73.394;2022-10-17T11:32:40;52.80;;;48.63;;
73172;SDS011;61388;54.962;73.394;2022-10-17T11:37:34;38.17;;;35.42;;
73172;SDS011;61388;54.962;73.394;2022-10-17T11:40:02;28.23;;;26.35;;
73172;SDS011;61388;54.962;73.394;2022-10-17T11:42:31;28.87;;;27.00;;
73172;SDS011;61388;54.962;73.394;2022-10-17T11:45:02;35.13;;;32.67;;
73172;SDS011;61388;54.962;73.394;2022-10-17T11:47:37;31.10;;;28.90;;
73172;SDS011;61388;54.962;73.394;2022-10-17T11:50:08;50.70;;;47.13;;
73172;SDS011;61388;54.962;73.394;2022-10-17T11:52:40;38.70;;;35.33;;
73172;SDS011;61388;54.962;73.394;2022-10-17T11:55:15;48.10;;;44.50;;
73172;SDS011;61388;54.962;73.394;2022-10-17T11:57:51;31.50;;;29.15;;
73172;SDS011;61388;54.962;73.394;2022-10-17T12:00:30;40.90;;;38.25;;
73172;SDS011;61388;54.962;73.394;2022-10-17T12:05:53;54.45;;;50.58;;
73172;SDS011;61388;54.962;73.394;2022-10-17T12:08:43;51.83;;;48.43;;
73172;SDS011;61388;54.962;73.394;2022-10-17T12:11:18;63.53;;;59.67;;
73172;SDS011;61388;54.962;73.394;2022-10-17T12:13:53;40.95;;;37.47;;
73172;SDS011;61388;54.962;73.394;2022-10-17T12:18:46;40.55;;;37.28;;
73172;SDS011;61388;54.962;73.394;2022-10-17T12:21:18;31.30;;;28.60;;
73172;SDS011;61388;54.962;73.394;2022-10-17T12:23:50;36.53;;;33.22;;
73172;SDS011;61388;54.962;73.394;2022-10-17T12:26:24;29.42;;;27.08;;
73172;SDS011;61388;54.962;73.394;2022-10-17T12:28:50;65.43;;;60.65;;
73172;SDS011;61388;54.962;73.394;2022-10-17T12:33:53;31.60;;;28.77;;
73172;SDS011;61388;54.962;73.394;2022-10-17T12:38:49;66.63;;;62.65;;
73172;SDS011;61388;54.962;73.394;2022-10-17T12:41:16;42.72;;;39.53;;
73172;SDS011;61388;54.962;73.394;2022-10-17T12:46:41;55.15;;;50.17;;
73172;SDS011;61388;54.962;73.394;2022-10-17T12:59:49;52.97;;;49.53;;
73172;SDS011;61388;54.962;73.394;2022-10-17T13:02:19;33.65;;;31.08;;
73172;SDS011;61388;54.962;73.394;2022-10-17T13:04:47;30.85;;;28.15;;
73172;SDS011;61388;54.962;73.394;2022-10-17T13:07:23;26.15;;;23.35;;
73172;SDS011;61388;54.962;73.394;2022-10-17T13:09:49;21.93;;;19.87;;
73172;SDS011;61388;54.962;73.394;2022-10-17T13:12:19;23.67;;;21.55;;
73172;SDS011;61388;54.962;73.394;2022-10-17T13:14:46;34.65;;;31.75;;
73172;SDS011;61388;54.962;73.394;2022-10-17T13:17:24;27.90;;;25.20;;
73172;SDS011;61388;54.962;73.394;2022-10-17T13:19:50;34.42;;;29.92;;
73172;SDS011;61388;54.962;73.394;2022-10-17T13:22:18;31.90;;;28.70;;
73172;SDS011;61388;54.962;73.394;2022-10-17T13:24:50;26.38;;;23.95;;
73172;SDS011;61388;54.962;73.394;2022-10-17T13:27:24;34.25;;;29.80;;
73172;SDS011;61388;54.962;73.394;2022-10-17T13:30:00;33.88;;;26.17;;
73172;SDS011;61388;54.962;73.394;2022-10-17T13:32:37;26.48;;;23.65;;
73172;SDS011;61388;54.962;73.394;2022-10-17T13:35:08;27.07;;;24.27;;
73172;SDS011;61388;54.962;73.394;2022-10-17T13:37:35;27.52;;;24.83;;
73172;SDS011;61388;54.962;73.394;2022-10-17T13:40:01;41.08;;;37.47;;
73172;SDS011;61388;54.962;73.394;2022-10-17T13:42:28;25.65;;;23.00;;
73172;SDS011;61388;54.962;73.394;2022-10-17T13:45:12;35.60;;;29.95;;
73172;SDS011;61388;54.962;73.394;2022-10-17T13:47:42;27.60;;;24.90;;
73172;SDS011;61388;54.962;73.394;2022-10-17T13:50:12;31.83;;;28.55;;
73172;SDS011;61388;54.962;73.394;2022-10-17T13:53:13;30.85;;;27.95;;
73172;SDS011;61388;54.962;73.394;2022-10-17T13:58:28;30.73;;;27.75;;
73172;SDS011;61388;54.962;73.394;2022-10-17T14:00:54;32.23;;;28.93;;
73172;SDS011;61388;54.962;73.394;2022-10-17T14:03:21;36.40;;;32.65;;
73172;SDS011;61388;54.962;73.394;2022-10-17T14:05:58;29.92;;;27.05;;
73172;SDS011;61388;54.962;73.394;2022-10-17T14:08:25;27.60;;;24.98;;
73172;SDS011;61388;54.962;73.394;2022-10-17T14:11:02;26.08;;;23.67;;
73172;SDS011;61388;54.962;73.394;2022-10-17T14:13:29;37.53;;;34.20;;
73172;SDS011;61388;54.962;73.394;2022-10-17T14:15:59;28.38;;;25.52;;
73172;SDS011;61388;54.962;73.394;2022-10-17T14:18:27;34.30;;;29.40;;
73172;SDS011;61388;54.962;73.394;2022-10-17T14:20:53;30.45;;;27.35;;
73172;SDS011;61388;54.962;73.394;2022-10-17T14:23:34;40.33;;;36.55;;
73172;SDS011;61388;54.962;73.394;2022-10-17T14:26:15;27.63;;;24.77;;
73172;SDS011;61388;54.962;73.394;2022-10-17T14:28:43;35.33;;;31.50;;
73172;SDS011;61388;54.962;73.394;2022-10-17T14:31:20;34.00;;;30.52;;
73172;SDS011;61388;54.962;73.394;2022-10-17T14:33:47;38.92;;;34.97;;
73172;SDS011;61388;54.962;73.394;2022-10-17T14:36:14;33.08;;;30.08;;
73172;SDS011;61388;54.962;73.394;2022-10-17T14:38:43;36.20;;;32.83;;
73172;SDS011;61388;54.962;73.394;2022-10-17T14:41:14;33.92;;;30.65;;
73172;SDS011;61388;54.962;73.394;2022-10-17T14:43:44;43.45;;;39.67;;
73172;SDS011;61388;54.962;73.394;2022-10-17T14:46:12;37.70;;;33.60;;
73172;SDS011;61388;54.962;73.394;2022-10-17T14:48:39;32.08;;;28.90;;
73172;SDS011;61388;54.962;73.394;2022-10-17T14:51:10;36.90;;;33.40;;
73172;SDS011;61388;54.962;73.394;2022-10-17T14:53:37;35.05;;;31.90;;
73172;SDS011;61388;54.962;73.394;2022-10-17T14:56:17;35.40;;;31.48;;
73172;SDS011;61388;54.962;73.394;2022-10-17T14:58:44;38.20;;;34.70;;
73172;SDS011;61388;54.962;73.394;2022-10-17T15:01:10;40.40;;;36.60;;
73172;SDS011;61388;54.962;73.394;2022-10-17T15:03:36;34.97;;;31.60;;
73172;SDS011;61388;54.962;73.394;2022-10-17T15:06:45;35.88;;;32.45;;
73172;SDS011;61388;54.962;73.394;2022-10-17T15:08:52;38.08;;;34.28;;
73172;SDS011;61388;54.962;73.394;2022-10-17T15:11:18;30.15;;;26.98;;
73172;SDS011;61388;54.962;73.394;2022-10-17T15:13:44;32.53;;;29.17;;
73172;SDS011;61388;54.962;73.394;2022-10-17T15:16:14;31.83;;;29.08;;
73172;SDS011;61388;54.962;73.394;2022-10-17T15:18:41;25.15;;;22.70;;
73172;SDS011;61388;54.962;73.394;2022-10-17T15:21:13;33.08;;;29.05;;
73172;SDS011;61388;54.962;73.394;2022-10-17T15:23:39;34.78;;;30.45;;
73172;SDS011;61388;54.962;73.394;2022-10-17T15:26:18;38.53;;;34.73;;
73172;SDS011;61388;54.962;73.394;2022-10-17T15:28:45;35.47;;;31.85;;
73172;SDS011;61388;54.962;73.394;2022-10-17T15:31:13;32.63;;;29.45;;
73172;SDS011;61388;54.962;73.394;2022-10-17T15:33:44;32.75;;;27.75;;
73172;SDS011;61388;54.962;73.394;2022-10-17T15:38:53;31.00;;;27.90;;
73172;SDS011;61388;54.962;73.394;2022-10-17T15:41:30;34.25;;;30.55;;
73172;SDS011;61388;54.962;73.394;2022-10-17T15:43:56;42.63;;;38.25;;
73172;SDS011;61388;54.962;73.394;2022-10-17T15:46:25;40.50;;;36.20;;
73172;SDS011;61388;54.962;73.394;2022-10-17T15:49:03;47.58;;;39.33;;
73172;SDS011;61388;54.962;73.394;2022-10-17T15:51:29;49.43;;;42.87;;
73172;SDS011;61388;54.962;73.394;2022-10-17T15:53:57;48.22;;;43.13;;
73172;SDS011;61388;54.962;73.394;2022-10-17T15:56:30;39.22;;;35.38;;
73172;SDS011;61388;54.962;73.394;2022-10-17T15:58:56;44.17;;;40.00;;
73172;SDS011;61388;54.962;73.394;2022-10-17T16:01:24;43.47;;;38.70;;
73172;SDS011;61388;54.962;73.394;2022-10-17T16:04:01;40.77;;;36.20;;
73172;SDS011;61388;54.962;73.394;2022-10-17T16:06:31;43.85;;;35.03;;
73172;SDS011;61388;54.962;73.394;2022-10-17T16:08:57;45.95;;;41.38;;
73172;SDS011;61388;54.962;73.394;2022-10-17T16:11:26;34.53;;;31.10;;
73172;SDS011;61388;54.962;73.394;2022-10-17T16:14:04;32.17;;;28.27;;
73172;SDS011;61388;54.962;73.394;2022-10-17T16:16:40;29.43;;;26.43;;
73172;SDS011;61388;54.962;73.394;2022-10-17T16:19:06;31.15;;;28.13;;
73172;SDS011;61388;54.962;73.394;2022-10-17T16:21:34;37.42;;;30.02;;
73172;SDS011;61388;54.962;73.394;2022-10-17T16:24:00;30.00;;;26.92;;
73172;SDS011;61388;54.962;73.394;2022-10-17T16:26:27;29.98;;;26.65;;
73172;SDS011;61388;54.962;73.394;2022-10-17T16:28:53;32.90;;;29.60;;
73172;SDS011;61388;54.962;73.394;2022-10-17T16:31:26;27.90;;;25.08;;
73172;SDS011;61388;54.962;73.394;2022-10-17T16:34:01;29.10;;;23.73;;
73172;SDS011;61388;54.962;73.394;2022-10-17T16:36:28;28.75;;;25.77;;
73172;SDS011;61388;54.962;73.394;2022-10-17T16:38:54;34.00;;;27.70;;
73172;SDS011;61388;54.962;73.394;2022-10-17T16:41:25;30.93;;;27.70;;
73172;SDS011;61388;54.962;73.394;2022-10-17T16:43:53;32.58;;;29.23;;
73172;SDS011;61388;54.962;73.394;2022-10-17T16:46:20;32.95;;;29.90;;
73172;SDS011;61388;54.962;73.394;2022-10-17T16:48:57;27.02;;;24.48;;
73172;SDS011;61388;54.962;73.394;2022-10-17T16:51:28;28.70;;;25.55;;
73172;SDS011;61388;54.962;73.394;2022-10-17T16:53:55;27.80;;;25.13;;
73172;SDS011;61388;54.962;73.394;2022-10-17T16:56:25;28.25;;;25.10;;
73172;SDS011;61388;54.962;73.394;2022-10-17T16:59:06;32.90;;;29.42;;
73172;SDS011;61388;54.962;73.394;2022-10-17T17:01:32;29.58;;;26.52;;
73172;SDS011;61388;54.962;73.394;2022-10-17T17:03:58;33.95;;;30.73;;
73172;SDS011;61388;54.962;73.394;2022-10-17T17:06:26;28.40;;;25.60;;